Airfield :











YOU CAN JOIN US ON...

 
LOGIN :

Register | Disclaimer

   EN    FR    IT 

 









Legend :    VFR   Marginal VFR   IFR   Intensive IFR   Very Intensive IFR
Visi :
Ceiling :
>= 8 km
>= 3000ft
5 to 8 km
1000 to 3000 ft
1500m to 5 km
500 to 1000 ft
800 to 1500m
200 to 500 ft
< 800m
< 200 ft
Symbols :   Thunderstorms  Fog  Heavy snow  Heavy precipitations  Wind > 20 kt







- Airport Elevation : 3497 ft
- IATA code : BSB


SBBR - Presidente Juscelino Kubistschek International

CURRENT METAR :
  • 261100Z VRB02KT CAVOK 19/15 Q1022

EXPIRED METARs :
  • 261000Z VRB02KT CAVOK 17/15 Q1021
  • 260900Z VRB02KT CAVOK 18/15 Q1021

TAF TAF SBBR
Valid from the 26 at 12:00 until the 27 at 12:00 UTC


261000Z 2612/2712 01008KT 9999 SCT040 TX26/2617Z TN15/2707Z
BECMG 2615/2617 FEW045
BECMG 2700/2702 00000KT CAVOK
BECMG 2703/2705 00000KT CAVOK RMK PFF
SBBS FIR / South America



MET'MAP, your aeronautical weather chart ! - Copyright ORBIFLY December 2007 - Disclaimer

ORBIFLY MET'MAP TEAM :

Programming & Development : Alexandra Zaïnal
Concept & Development : Baudouin d'Aumeries
Co-Development & Prog : Marc-Olivier Méhu
Technical & hardware support : Manuel Goepfert

Contact : metmap@orbifly.com




SOURCES & CREDITS :

   NOAA       Earth
Advisory